createdAt,value
2023-04-07T00:00:58.738Z,1007.93
2023-04-07T00:01:58.763Z,1007.92
2023-04-07T00:02:58.795Z,1007.90
2023-04-07T00:03:59.045Z,1007.87
2023-04-07T00:04:58.967Z,1007.89
2023-04-07T00:05:58.711Z,1007.92
2023-04-07T00:06:58.686Z,1007.90
2023-04-07T00:07:58.650Z,1007.85
2023-04-07T00:08:58.673Z,1007.89
2023-04-07T00:09:58.767Z,1007.93
2023-04-07T00:10:58.612Z,1007.89
2023-04-07T00:11:58.624Z,1007.91
2023-04-07T00:12:58.622Z,1007.94
2023-04-07T00:13:58.598Z,1007.93
2023-04-07T00:14:59.127Z,1008.00
2023-04-07T00:15:58.641Z,1007.95
2023-04-07T00:16:58.572Z,1008.00
2023-04-07T00:17:58.584Z,1007.96
2023-04-07T00:18:58.527Z,1007.93
2023-04-07T00:19:59.033Z,1007.91
2023-04-07T00:20:58.504Z,1007.92
2023-04-07T00:21:58.501Z,1007.88
2023-04-07T00:22:58.484Z,1007.90
2023-04-07T00:23:58.489Z,1007.88
2023-04-07T00:24:58.469Z,1007.91
2023-04-07T00:25:58.469Z,1007.87
2023-04-07T00:26:58.447Z,1007.87
2023-04-07T00:27:58.434Z,1007.84
2023-04-07T00:28:58.427Z,1007.87
2023-04-07T00:29:58.475Z,1007.82
2023-04-07T00:30:58.398Z,1007.79
2023-04-07T00:31:58.388Z,1007.81
2023-04-07T00:32:58.387Z,1007.77
2023-04-07T00:33:58.375Z,1007.78
2023-04-07T00:34:58.424Z,1007.74
2023-04-07T00:35:58.379Z,1007.75
2023-04-07T00:36:58.331Z,1007.74
2023-04-07T00:37:58.323Z,1007.72
2023-04-07T00:38:58.379Z,1007.73
2023-04-07T00:39:58.320Z,1007.71
2023-04-07T00:40:58.297Z,1007.77
2023-04-07T00:41:58.287Z,1007.75
2023-04-07T00:42:58.266Z,1007.73
2023-04-07T00:43:58.273Z,1007.75
2023-04-07T00:44:58.294Z,1007.76
2023-04-07T00:45:58.250Z,1007.75
2023-04-07T00:46:58.220Z,1007.74
2023-04-07T00:47:58.340Z,1007.78
2023-04-07T00:48:58.256Z,1007.73
2023-04-07T00:49:58.223Z,1007.73
2023-04-07T00:50:58.185Z,1007.71
2023-04-07T00:51:58.182Z,1007.70
2023-04-07T00:52:58.173Z,1007.66
2023-04-07T00:53:58.154Z,1007.66
2023-04-07T00:54:58.159Z,1007.64
2023-04-07T00:55:58.144Z,1007.63
2023-04-07T00:56:58.132Z,1007.63
2023-04-07T00:57:58.108Z,1007.61
2023-04-07T00:58:58.101Z,1007.62
2023-04-07T00:59:58.108Z,1007.59
2023-04-07T01:00:58.082Z,1007.61
2023-04-07T01:01:58.269Z,1007.60
2023-04-07T01:02:58.289Z,1007.58
2023-04-07T01:03:58.398Z,1007.60
2023-04-07T01:04:58.179Z,1007.56
2023-04-07T01:05:58.030Z,1007.58
2023-04-07T01:06:58.009Z,1007.55
2023-04-07T01:07:58.008Z,1007.54
2023-04-07T01:08:58.020Z,1007.54
2023-04-07T01:09:57.994Z,1007.55
2023-04-07T01:10:57.999Z,1007.56
2023-04-07T01:11:57.956Z,1007.52
2023-04-07T01:12:57.956Z,1007.56
2023-04-07T01:13:58.091Z,1007.55
2023-04-07T01:14:57.967Z,1007.58
2023-04-07T01:15:57.943Z,1007.52
2023-04-07T01:16:57.930Z,1007.54
2023-04-07T01:17:57.948Z,1007.57
2023-04-07T01:18:57.883Z,1007.55
2023-04-07T01:19:57.890Z,1007.52
2023-04-07T01:20:57.854Z,1007.56
2023-04-07T01:21:57.853Z,1007.55
2023-04-07T01:22:57.842Z,1007.50
2023-04-07T01:23:57.907Z,1007.55
2023-04-07T01:24:57.998Z,1007.56
2023-04-07T01:25:57.812Z,1007.55
2023-04-07T01:26:57.800Z,1007.52
2023-04-07T01:27:57.781Z,1007.54
2023-04-07T01:28:57.787Z,1007.52
2023-04-07T01:29:57.785Z,1007.51
2023-04-07T01:30:57.750Z,1007.53
2023-04-07T01:31:57.807Z,1007.52
2023-04-07T01:32:57.763Z,1007.54
2023-04-07T01:33:57.851Z,1007.56
2023-04-07T01:34:57.723Z,1007.56
2023-04-07T01:35:57.734Z,1007.58
2023-04-07T01:36:57.763Z,1007.56
2023-04-07T01:37:57.675Z,1007.56
2023-04-07T01:38:57.722Z,1007.59
2023-04-07T01:39:57.713Z,1007.57
2023-04-07T01:40:57.650Z,1007.61
2023-04-07T01:41:57.666Z,1007.59
2023-04-07T01:42:57.621Z,1007.58
2023-04-07T01:43:57.665Z,1007.60
2023-04-07T01:44:57.605Z,1007.59
2023-04-07T01:45:57.641Z,1007.64
2023-04-07T01:46:57.650Z,1007.57
2023-04-07T01:47:57.643Z,1007.59
2023-04-07T01:48:57.582Z,1007.54
2023-04-07T01:49:57.584Z,1007.56
2023-04-07T01:50:57.584Z,1007.53
2023-04-07T01:51:57.531Z,1007.55
2023-04-07T01:52:57.553Z,1007.52
2023-04-07T01:53:57.634Z,1007.52
2023-04-07T01:54:57.502Z,1007.55
2023-04-07T01:55:57.502Z,1007.50
2023-04-07T01:56:57.614Z,1007.50
2023-04-07T01:57:57.461Z,1007.53
2023-04-07T01:58:57.477Z,1007.49
2023-04-07T01:59:57.440Z,1007.53
2023-04-07T02:00:57.463Z,1007.49
2023-04-07T02:01:57.474Z,1007.53
2023-04-07T02:02:57.559Z,1007.54
2023-04-07T02:03:57.728Z,1007.48
2023-04-07T02:04:57.445Z,1007.50
2023-04-07T02:05:57.400Z,1007.51
2023-04-07T02:06:57.420Z,1007.49
2023-04-07T02:07:57.370Z,1007.49
2023-04-07T02:08:57.410Z,1007.50
2023-04-07T02:09:57.366Z,1007.51
2023-04-07T02:10:57.356Z,1007.50
2023-04-07T02:11:57.327Z,1007.50
2023-04-07T02:12:57.344Z,1007.52
2023-04-07T02:13:57.298Z,1007.53
2023-04-07T02:14:57.479Z,1007.50
2023-04-07T02:15:57.334Z,1007.52
2023-04-07T02:16:57.310Z,1007.58
2023-04-07T02:17:57.298Z,1007.56
2023-04-07T02:18:57.234Z,1007.52
2023-04-07T02:19:57.247Z,1007.55
2023-04-07T02:20:57.235Z,1007.55
2023-04-07T02:21:57.227Z,1007.57
2023-04-07T02:22:57.288Z,1007.55
2023-04-07T02:23:57.404Z,1007.56
2023-04-07T02:24:57.195Z,1007.57
2023-04-07T02:25:57.177Z,1007.58
2023-04-07T02:26:57.150Z,1007.60
2023-04-07T02:27:57.167Z,1007.58
2023-04-07T02:28:57.192Z,1007.57
2023-04-07T02:29:57.159Z,1007.58
2023-04-07T02:30:57.282Z,1007.58
2023-04-07T02:31:57.141Z,1007.57
2023-04-07T02:32:57.134Z,1007.58
2023-04-07T02:33:57.087Z,1007.58
2023-04-07T02:34:57.087Z,1007.59
2023-04-07T02:35:57.063Z,1007.55
2023-04-07T02:36:57.151Z,1007.57
2023-04-07T02:37:57.038Z,1007.56
2023-04-07T02:38:57.056Z,1007.52
2023-04-07T02:39:57.023Z,1007.58
2023-04-07T02:40:57.012Z,1007.56
2023-04-07T02:41:57.001Z,1007.59
2023-04-07T02:42:57.033Z,1007.58
2023-04-07T02:43:57.466Z,1007.59
2023-04-07T02:44:56.965Z,1007.60
2023-04-07T02:45:57.014Z,1007.61
2023-04-07T02:46:57.016Z,1007.60
2023-04-07T02:47:56.956Z,1007.58
2023-04-07T02:48:56.922Z,1007.60
2023-04-07T02:49:56.929Z,1007.63
2023-04-07T02:50:56.892Z,1007.60
2023-04-07T02:51:56.880Z,1007.63
2023-04-07T02:52:56.919Z,1007.64
2023-04-07T02:53:57.192Z,1007.62
2023-04-07T02:54:56.874Z,1007.64
2023-04-07T02:55:56.870Z,1007.63
2023-04-07T02:56:56.849Z,1007.66
2023-04-07T02:57:56.819Z,1007.66
2023-04-07T02:58:56.877Z,1007.66
2023-04-07T02:59:56.798Z,1007.65
2023-04-07T03:00:56.842Z,1007.65
2023-04-07T03:01:56.980Z,1007.69
2023-04-07T03:02:56.919Z,1007.65
2023-04-07T03:03:57.169Z,1007.66
2023-04-07T03:04:56.741Z,1007.65
2023-04-07T03:05:56.740Z,1007.64
2023-04-07T03:06:56.737Z,1007.66
2023-04-07T03:07:56.739Z,1007.65
2023-04-07T03:08:56.717Z,1007.65
2023-04-07T03:09:56.707Z,1007.68
2023-04-07T03:10:56.693Z,1007.70
2023-04-07T03:11:56.671Z,1007.65
2023-04-07T03:12:56.657Z,1007.66
2023-04-07T03:13:56.658Z,1007.66
2023-04-07T03:14:56.642Z,1007.63
2023-04-07T03:15:56.626Z,1007.67
2023-04-07T03:16:56.654Z,1007.70
2023-04-07T03:17:56.709Z,1007.67
2023-04-07T03:18:56.605Z,1007.68
2023-04-07T03:19:56.588Z,1007.68
2023-04-07T03:20:56.584Z,1007.71
2023-04-07T03:21:56.561Z,1007.71
2023-04-07T03:22:56.551Z,1007.71
2023-04-07T03:23:56.589Z,1007.71
2023-04-07T03:24:56.535Z,1007.72
2023-04-07T03:25:56.525Z,1007.69
2023-04-07T03:26:56.521Z,1007.73
2023-04-07T03:27:56.501Z,1007.70
2023-04-07T03:28:56.492Z,1007.70
2023-04-07T03:29:56.473Z,1007.68
2023-04-07T03:30:56.481Z,1007.70
2023-04-07T03:31:56.465Z,1007.71
2023-04-07T03:32:56.477Z,1007.68
2023-04-07T03:33:56.438Z,1007.62
2023-04-07T03:34:56.423Z,1007.65
2023-04-07T03:35:56.458Z,1007.66
2023-04-07T03:36:56.400Z,1007.68
2023-04-07T03:37:56.391Z,1007.65
2023-04-07T03:38:56.405Z,1007.67
2023-04-07T03:39:56.383Z,1007.69
2023-04-07T03:40:56.361Z,1007.70
2023-04-07T03:41:56.403Z,1007.70
2023-04-07T03:42:56.365Z,1007.72
2023-04-07T03:43:56.385Z,1007.72
2023-04-07T03:44:56.314Z,1007.71
2023-04-07T03:45:56.370Z,1007.70
2023-04-07T03:46:56.318Z,1007.75
2023-04-07T03:47:56.338Z,1007.68
2023-04-07T03:48:56.284Z,1007.73
2023-04-07T03:49:56.271Z,1007.72
2023-04-07T03:50:56.262Z,1007.72
2023-04-07T03:51:56.245Z,1007.74
2023-04-07T03:52:56.254Z,1007.72
2023-04-07T03:53:56.247Z,1007.79
2023-04-07T03:54:56.266Z,1007.75
2023-04-07T03:55:56.229Z,1007.76
2023-04-07T03:56:56.204Z,1007.80
2023-04-07T03:57:56.203Z,1007.77
2023-04-07T03:58:56.204Z,1007.77
2023-04-07T03:59:56.166Z,1007.79
2023-04-07T04:00:56.177Z,1007.77
2023-04-07T04:01:56.171Z,1007.77
2023-04-07T04:02:56.220Z,1007.75
2023-04-07T04:03:56.438Z,1007.79
2023-04-07T04:04:56.112Z,1007.79
2023-04-07T04:05:56.092Z,1007.78
2023-04-07T04:06:56.127Z,1007.79
2023-04-07T04:07:56.073Z,1007.80
2023-04-07T04:08:56.076Z,1007.79
2023-04-07T04:09:56.062Z,1007.81
2023-04-07T04:10:56.029Z,1007.82
2023-04-07T04:11:56.091Z,1007.84
2023-04-07T04:12:56.051Z,1007.87
2023-04-07T04:13:56.074Z,1007.87
2023-04-07T04:14:55.994Z,1007.88
2023-04-07T04:15:56.013Z,1007.84
2023-04-07T04:16:56.022Z,1007.89
2023-04-07T04:17:55.999Z,1007.91
2023-04-07T04:18:55.960Z,1007.88
2023-04-07T04:19:55.942Z,1007.88
2023-04-07T04:20:55.936Z,1007.88
2023-04-07T04:21:55.914Z,1007.88
2023-04-07T04:22:55.936Z,1007.90
2023-04-07T04:23:55.914Z,1007.89
2023-04-07T04:24:55.889Z,1007.91
2023-04-07T04:25:55.933Z,1007.92
2023-04-07T04:26:55.862Z,1007.91
2023-04-07T04:27:55.854Z,1007.91
2023-04-07T04:28:55.866Z,1007.97
2023-04-07T04:29:55.840Z,1007.91
2023-04-07T04:30:55.837Z,1007.96
2023-04-07T04:31:55.848Z,1007.98
2023-04-07T04:32:55.936Z,1008.01
2023-04-07T04:33:55.822Z,1008.02
2023-04-07T04:34:55.779Z,1008.00
2023-04-07T04:35:55.823Z,1008.02
2023-04-07T04:36:55.803Z,1008.04
2023-04-07T04:37:55.758Z,1008.04
2023-04-07T04:38:55.786Z,1008.04
2023-04-07T04:39:55.725Z,1008.06
2023-04-07T04:40:55.715Z,1008.05
2023-04-07T04:41:55.730Z,1008.05
2023-04-07T04:42:55.723Z,1008.12
2023-04-07T04:43:55.712Z,1008.11
2023-04-07T04:44:55.676Z,1008.12
2023-04-07T04:45:55.657Z,1008.09
2023-04-07T04:46:55.715Z,1008.14
2023-04-07T04:47:55.675Z,1008.14
2023-04-07T04:48:55.642Z,1008.16
2023-04-07T04:49:55.667Z,1008.16
2023-04-07T04:50:55.603Z,1008.14
2023-04-07T04:51:55.596Z,1008.19
2023-04-07T04:52:55.580Z,1008.15
2023-04-07T04:53:55.784Z,1008.15
2023-04-07T04:54:55.567Z,1008.16
2023-04-07T04:55:55.569Z,1008.15
2023-04-07T04:56:55.538Z,1008.18
2023-04-07T04:57:55.539Z,1008.20
2023-04-07T04:58:55.551Z,1008.23
2023-04-07T04:59:55.511Z,1008.22
2023-04-07T05:00:55.572Z,1008.23
2023-04-07T05:01:55.571Z,1008.22
2023-04-07T05:02:55.712Z,1008.23
2023-04-07T05:03:55.781Z,1008.26
2023-04-07T05:04:55.549Z,1008.27
2023-04-07T05:05:55.443Z,1008.31
2023-04-07T05:06:55.425Z,1008.28
2023-04-07T05:07:55.428Z,1008.31
2023-04-07T05:08:55.440Z,1008.33
2023-04-07T05:09:55.401Z,1008.30
2023-04-07T05:10:55.398Z,1008.34
2023-04-07T05:11:55.379Z,1008.33
2023-04-07T05:12:55.417Z,1008.31
2023-04-07T05:13:55.375Z,1008.32
2023-04-07T05:14:55.400Z,1008.32
2023-04-07T05:15:55.423Z,1008.31
2023-04-07T05:16:55.325Z,1008.35
2023-04-07T05:17:55.348Z,1008.34
2023-04-07T05:18:55.310Z,1008.35
2023-04-07T05:19:55.300Z,1008.34
2023-04-07T05:20:55.292Z,1008.32
2023-04-07T05:21:55.269Z,1008.36
2023-04-07T05:22:55.300Z,1008.35
2023-04-07T05:23:55.282Z,1008.31
2023-04-07T05:24:55.258Z,1008.34
2023-04-07T05:25:55.229Z,1008.35
2023-04-07T05:26:55.240Z,1008.37
2023-04-07T05:27:55.217Z,1008.34
2023-04-07T05:28:55.215Z,1008.34
2023-04-07T05:29:55.267Z,1008.38
2023-04-07T05:30:55.477Z,1008.36
2023-04-07T05:31:55.181Z,1008.39
2023-04-07T05:32:55.230Z,1008.41
2023-04-07T05:33:55.152Z,1008.43
2023-04-07T05:34:55.130Z,1008.40
2023-04-07T05:35:55.160Z,1008.45
2023-04-07T05:36:55.114Z,1008.42
2023-04-07T05:37:55.106Z,1008.44
2023-04-07T05:38:55.262Z,1008.44
2023-04-07T05:39:55.105Z,1008.40
2023-04-07T05:40:55.077Z,1008.43
2023-04-07T05:41:55.056Z,1008.42
2023-04-07T05:42:55.042Z,1008.41
2023-04-07T05:43:55.045Z,1008.41
2023-04-07T05:44:55.054Z,1008.42
2023-04-07T05:45:55.078Z,1008.42
2023-04-07T05:46:54.996Z,1008.42
2023-04-07T05:47:55.008Z,1008.45
2023-04-07T05:48:54.994Z,1008.44
2023-04-07T05:49:54.985Z,1008.45
2023-04-07T05:50:54.977Z,1008.42
2023-04-07T05:51:54.947Z,1008.48
2023-04-07T05:52:54.962Z,1008.47
2023-04-07T05:53:54.938Z,1008.50
2023-04-07T05:54:54.941Z,1008.49
2023-04-07T05:55:54.909Z,1008.54
2023-04-07T05:56:54.928Z,1008.55
2023-04-07T05:57:54.928Z,1008.52
2023-04-07T05:58:54.884Z,1008.56
2023-04-07T05:59:54.863Z,1008.60
2023-04-07T06:00:54.887Z,1008.61
2023-04-07T06:01:54.928Z,1008.57
2023-04-07T06:02:54.926Z,1008.64
2023-04-07T06:03:54.838Z,1008.64
2023-04-07T06:04:54.933Z,1008.64
2023-04-07T06:05:54.801Z,1008.65
2023-04-07T06:06:54.824Z,1008.67
2023-04-07T06:07:54.826Z,1008.63
2023-04-07T06:08:54.792Z,1008.67
2023-04-07T06:09:54.773Z,1008.68
2023-04-07T06:10:54.747Z,1008.69
2023-04-07T06:11:54.749Z,1008.68
2023-04-07T06:12:54.730Z,1008.68
2023-04-07T06:13:54.723Z,1008.71
2023-04-07T06:14:54.751Z,1008.69
2023-04-07T06:15:54.724Z,1008.67
2023-04-07T06:16:54.700Z,1008.69
2023-04-07T06:17:54.685Z,1008.72
2023-04-07T06:18:54.723Z,1008.65
2023-04-07T06:19:54.665Z,1008.70
2023-04-07T06:20:54.646Z,1008.72
2023-04-07T06:21:54.638Z,1008.75
2023-04-07T06:22:54.617Z,1008.73
2023-04-07T06:23:54.718Z,1008.77
2023-04-07T06:24:54.584Z,1008.76
2023-04-07T06:25:54.589Z,1008.78
2023-04-07T06:26:54.574Z,1008.78
2023-04-07T06:27:54.559Z,1008.78
2023-04-07T06:28:54.594Z,1008.80
2023-04-07T06:29:54.543Z,1008.83
2023-04-07T06:30:54.559Z,1008.81
2023-04-07T06:31:54.676Z,1008.85
2023-04-07T06:32:54.572Z,1008.82
2023-04-07T06:33:54.505Z,1008.86
2023-04-07T06:34:54.479Z,1008.84
2023-04-07T06:35:54.524Z,1008.86
2023-04-07T06:36:54.909Z,1008.88
2023-04-07T06:37:54.452Z,1008.89
2023-04-07T06:38:54.464Z,1008.93
2023-04-07T06:39:54.609Z,1008.92
2023-04-07T06:40:54.424Z,1008.91
2023-04-07T06:41:54.472Z,1008.94
2023-04-07T06:42:54.400Z,1008.90
2023-04-07T06:43:54.398Z,1008.89
2023-04-07T06:44:54.381Z,1008.92
2023-04-07T06:45:54.400Z,1008.95
2023-04-07T06:46:54.357Z,1008.94
2023-04-07T06:47:54.368Z,1008.97
2023-04-07T06:48:54.339Z,1008.97
2023-04-07T06:49:54.333Z,1008.99
2023-04-07T06:50:54.316Z,1009.00
2023-04-07T06:51:54.333Z,1008.98
2023-04-07T06:52:54.285Z,1009.04
2023-04-07T06:53:54.335Z,1009.03
2023-04-07T06:54:54.294Z,1009.08
2023-04-07T06:55:54.264Z,1009.08
2023-04-07T06:56:54.674Z,1009.07
2023-04-07T06:57:54.235Z,1009.11
2023-04-07T06:58:54.234Z,1009.12
2023-04-07T06:59:54.228Z,1009.09
2023-04-07T07:00:54.224Z,1009.09
2023-04-07T07:01:54.265Z,1009.12
2023-04-07T07:02:54.341Z,1009.14
2023-04-07T07:03:54.249Z,1009.15
2023-04-07T07:04:54.163Z,1009.18
2023-04-07T07:05:54.157Z,1009.18
2023-04-07T07:06:54.131Z,1009.15
2023-04-07T07:07:54.177Z,1009.15
2023-04-07T07:08:54.123Z,1009.16
2023-04-07T07:09:54.114Z,1009.15
2023-04-07T07:10:54.122Z,1009.20
2023-04-07T07:11:54.084Z,1009.21
2023-04-07T07:12:54.082Z,1009.20
2023-04-07T07:13:54.091Z,1009.19
2023-04-07T07:14:54.044Z,1009.23
2023-04-07T07:15:54.195Z,1009.24
2023-04-07T07:16:54.033Z,1009.28
2023-04-07T07:17:54.241Z,1009.25
2023-04-07T07:18:55.700Z,1009.25
2023-04-07T07:19:54.116Z,1009.30
2023-04-07T07:20:54.637Z,1009.30
2023-04-07T07:21:54.041Z,1009.27
2023-04-07T07:22:54.186Z,1009.30
2023-04-07T07:23:54.360Z,1009.29
2023-04-07T07:24:54.302Z,1009.28
2023-04-07T07:25:54.079Z,1009.28
2023-04-07T07:26:54.045Z,1009.33
2023-04-07T07:27:53.958Z,1009.35
2023-04-07T07:28:54.004Z,1009.35
2023-04-07T07:29:54.165Z,1009.35
2023-04-07T07:30:54.100Z,1009.34
2023-04-07T07:31:55.247Z,1009.36
2023-04-07T07:32:56.554Z,1009.39
2023-04-07T07:33:54.175Z,1009.42
2023-04-07T07:34:54.145Z,1009.41
2023-04-07T07:35:54.190Z,1009.43
2023-04-07T07:36:54.141Z,1009.43
2023-04-07T07:37:53.876Z,1009.43
2023-04-07T07:38:53.856Z,1009.40
2023-04-07T07:39:53.788Z,1009.42
2023-04-07T07:40:53.769Z,1009.48
2023-04-07T07:41:53.760Z,1009.49
2023-04-07T07:42:53.742Z,1009.50
2023-04-07T07:43:53.757Z,1009.50
2023-04-07T07:44:53.727Z,1009.53
2023-04-07T07:45:53.709Z,1009.52
2023-04-07T07:46:53.746Z,1009.56
2023-04-07T07:47:53.754Z,1009.52
2023-04-07T07:48:53.699Z,1009.56
2023-04-07T07:49:53.717Z,1009.53
2023-04-07T07:50:53.738Z,1009.56
2023-04-07T07:51:53.722Z,1009.55
2023-04-07T07:52:53.782Z,1009.53
2023-04-07T07:53:53.723Z,1009.56
2023-04-07T07:54:53.735Z,1009.56
2023-04-07T07:55:53.663Z,1009.60
2023-04-07T07:56:53.632Z,1009.58
2023-04-07T07:57:53.617Z,1009.60
2023-04-07T07:58:53.634Z,1009.61
2023-04-07T07:59:53.593Z,1009.64
2023-04-07T08:00:53.550Z,1009.62
2023-04-07T08:01:53.551Z,1009.65
2023-04-07T08:02:53.602Z,1009.67
2023-04-07T08:03:53.948Z,1009.66
2023-04-07T08:04:53.588Z,1009.63
2023-04-07T08:05:53.520Z,1009.60
2023-04-07T08:06:53.507Z,1009.63
2023-04-07T08:07:54.701Z,1009.61
2023-04-07T08:08:53.481Z,1009.64
2023-04-07T08:09:53.461Z,1009.65
2023-04-07T08:10:53.461Z,1009.69
2023-04-07T08:11:53.428Z,1009.65
2023-04-07T08:12:53.438Z,1009.70
2023-04-07T08:13:53.613Z,1009.73
2023-04-07T08:14:53.451Z,1009.72
2023-04-07T08:15:53.439Z,1009.77
2023-04-07T08:16:53.378Z,1009.77
2023-04-07T08:17:54.832Z,1009.73
2023-04-07T08:18:53.384Z,1009.75
2023-04-07T08:19:53.362Z,1009.76
2023-04-07T08:20:53.349Z,1009.80
2023-04-07T08:21:53.328Z,1009.76
2023-04-07T08:22:53.318Z,1009.78
2023-04-07T08:23:53.765Z,1009.81
2023-04-07T08:24:53.299Z,1009.81
2023-04-07T08:25:53.399Z,1009.80
2023-04-07T08:26:53.274Z,1009.85
2023-04-07T08:27:53.271Z,1009.88
2023-04-07T08:28:53.358Z,1009.88
2023-04-07T08:29:53.239Z,1009.84
2023-04-07T08:30:53.276Z,1009.83
2023-04-07T08:31:53.321Z,1009.87
2023-04-07T08:32:53.343Z,1009.87
2023-04-07T08:33:53.197Z,1009.85
2023-04-07T08:34:53.185Z,1009.84
2023-04-07T08:35:53.181Z,1009.90
2023-04-07T08:36:53.183Z,1009.85
2023-04-07T08:37:53.154Z,1009.82
2023-04-07T08:38:53.165Z,1009.87
2023-04-07T08:39:53.124Z,1009.88
2023-04-07T08:40:53.121Z,1009.88
2023-04-07T08:41:53.107Z,1009.93
2023-04-07T08:42:53.186Z,1009.92
2023-04-07T08:43:53.268Z,1009.95
2023-04-07T08:44:53.083Z,1009.92
2023-04-07T08:45:53.731Z,1009.92
2023-04-07T08:46:53.094Z,1009.91
2023-04-07T08:47:53.116Z,1009.93
2023-04-07T08:48:53.097Z,1009.92
2023-04-07T08:49:53.019Z,1009.93
2023-04-07T08:50:53.064Z,1009.92
2023-04-07T08:51:52.982Z,1009.94
2023-04-07T08:52:53.000Z,1009.94
2023-04-07T08:53:53.001Z,1009.95
2023-04-07T08:54:52.966Z,1009.96
2023-04-07T08:55:52.956Z,1009.97
2023-04-07T08:56:52.942Z,1009.95
2023-04-07T08:57:52.934Z,1009.99
2023-04-07T08:58:52.925Z,1010.05
2023-04-07T08:59:52.922Z,1010.03
2023-04-07T09:00:52.960Z,1010.06
2023-04-07T09:01:52.944Z,1010.02
2023-04-07T09:02:52.966Z,1010.06
2023-04-07T09:03:53.168Z,1010.04
2023-04-07T09:04:52.845Z,1010.08
2023-04-07T09:05:52.841Z,1010.07
2023-04-07T09:06:52.890Z,1010.09
2023-04-07T09:07:52.883Z,1010.11
2023-04-07T09:08:52.815Z,1010.13
2023-04-07T09:09:52.796Z,1010.11
2023-04-07T09:10:52.801Z,1010.12
2023-04-07T09:11:52.826Z,1010.12
2023-04-07T09:12:52.784Z,1010.15
2023-04-07T09:13:52.757Z,1010.14
2023-04-07T09:14:52.740Z,1010.14
2023-04-07T09:15:52.727Z,1010.13
2023-04-07T09:16:52.790Z,1010.19
2023-04-07T09:17:52.736Z,1010.18
2023-04-07T09:18:52.698Z,1010.19
2023-04-07T09:19:52.681Z,1010.17
2023-04-07T09:20:52.679Z,1010.19
2023-04-07T09:21:52.655Z,1010.19
2023-04-07T09:22:52.670Z,1010.23
2023-04-07T09:23:52.640Z,1010.22
2023-04-07T09:24:52.618Z,1010.24
2023-04-07T09:25:52.621Z,1010.18
2023-04-07T09:26:52.597Z,1010.18
2023-04-07T09:27:52.589Z,1010.21
2023-04-07T09:28:52.582Z,1010.16
2023-04-07T09:29:52.594Z,1010.16
2023-04-07T09:30:52.547Z,1010.16
2023-04-07T09:31:52.576Z,1010.20
2023-04-07T09:32:52.573Z,1010.21
2023-04-07T09:33:52.534Z,1010.23
2023-04-07T09:34:52.544Z,1010.23
2023-04-07T09:35:52.526Z,1010.19
2023-04-07T09:36:52.500Z,1010.21
2023-04-07T09:37:52.478Z,1010.23
2023-04-07T09:38:52.500Z,1010.19
2023-04-07T09:39:52.489Z,1010.17
2023-04-07T09:40:52.446Z,1010.14
2023-04-07T09:41:52.472Z,1010.10
2023-04-07T09:42:52.422Z,1010.10
2023-04-07T09:43:52.496Z,1010.10
2023-04-07T09:44:52.398Z,1010.07
2023-04-07T09:45:52.455Z,1010.12
2023-04-07T09:46:52.386Z,1010.09
2023-04-07T09:47:52.461Z,1010.10
2023-04-07T09:48:52.360Z,1010.10
2023-04-07T09:49:52.349Z,1010.11
2023-04-07T09:50:52.327Z,1010.18
2023-04-07T09:51:52.336Z,1010.16
2023-04-07T09:52:52.387Z,1010.14
2023-04-07T09:53:52.829Z,1010.15
2023-04-07T09:54:52.288Z,1010.13
2023-04-07T09:55:52.285Z,1010.17
2023-04-07T09:56:52.274Z,1010.18
2023-04-07T09:57:52.273Z,1010.18
2023-04-07T09:58:52.294Z,1010.14
2023-04-07T09:59:52.250Z,1010.20
2023-04-07T10:00:52.302Z,1010.17
2023-04-07T10:01:53.423Z,1010.17
2023-04-07T10:02:52.425Z,1010.16
2023-04-07T10:03:52.349Z,1010.15
2023-04-07T10:04:52.517Z,1010.12
2023-04-07T10:05:52.191Z,1010.13
2023-04-07T10:06:52.206Z,1010.11
2023-04-07T10:07:52.202Z,1010.16
2023-04-07T10:08:52.384Z,1010.13
2023-04-07T10:09:52.152Z,1010.17
2023-04-07T10:10:52.135Z,1010.14
2023-04-07T10:11:52.127Z,1010.23
2023-04-07T10:12:53.109Z,1010.18
2023-04-07T10:13:52.107Z,1010.21
2023-04-07T10:14:52.090Z,1010.24
2023-04-07T10:15:52.100Z,1010.24
2023-04-07T10:16:52.155Z,1010.21
2023-04-07T10:17:52.215Z,1010.25
2023-04-07T10:18:52.057Z,1010.30
2023-04-07T10:19:52.055Z,1010.25
2023-04-07T10:20:52.070Z,1010.28
2023-04-07T10:21:52.007Z,1010.27
2023-04-07T10:22:52.036Z,1010.30
2023-04-07T10:23:52.041Z,1010.33
2023-04-07T10:24:51.976Z,1010.34
2023-04-07T10:25:51.986Z,1010.38
2023-04-07T10:26:52.020Z,1010.38
2023-04-07T10:27:51.946Z,1010.39
2023-04-07T10:28:52.249Z,1010.43
2023-04-07T10:29:51.923Z,1010.40
2023-04-07T10:30:51.990Z,1010.36
2023-04-07T10:31:51.908Z,1010.36
2023-04-07T10:32:51.935Z,1010.40
2023-04-07T10:33:52.365Z,1010.40
2023-04-07T10:34:51.878Z,1010.41
2023-04-07T10:35:51.891Z,1010.42
2023-04-07T10:36:51.854Z,1010.42
2023-04-07T10:37:51.932Z,1010.42
2023-04-07T10:38:51.851Z,1010.50
2023-04-07T10:39:51.832Z,1010.51
2023-04-07T10:40:51.817Z,1010.54
2023-04-07T10:41:51.841Z,1010.50
2023-04-07T10:42:51.800Z,1010.51
2023-04-07T10:43:51.786Z,1010.51
2023-04-07T10:44:51.821Z,1010.54
2023-04-07T10:45:51.791Z,1010.55
2023-04-07T10:46:51.741Z,1010.54
2023-04-07T10:47:51.780Z,1010.55
2023-04-07T10:48:51.724Z,1010.51
2023-04-07T10:49:51.712Z,1010.53
2023-04-07T10:50:51.704Z,1010.55
2023-04-07T10:51:51.690Z,1010.50
2023-04-07T10:52:52.665Z,1010.49
2023-04-07T10:53:51.967Z,1010.52
2023-04-07T10:54:51.648Z,1010.57
2023-04-07T10:55:51.644Z,1010.55
2023-04-07T10:56:51.651Z,1010.53
2023-04-07T10:57:51.623Z,1010.53
2023-04-07T10:58:51.779Z,1010.54
2023-04-07T10:59:51.596Z,1010.57
2023-04-07T11:00:51.588Z,1010.55
2023-04-07T11:01:51.708Z,1010.60
2023-04-07T11:02:51.844Z,1010.60
2023-04-07T11:03:51.817Z,1010.60
2023-04-07T11:04:51.593Z,1010.60
2023-04-07T11:05:51.537Z,1010.60
2023-04-07T11:06:51.523Z,1010.59
2023-04-07T11:07:51.614Z,1010.61
2023-04-07T11:08:51.518Z,1010.62
2023-04-07T11:09:51.484Z,1010.62
2023-04-07T11:10:51.502Z,1010.62
2023-04-07T11:11:51.490Z,1010.62
2023-04-07T11:12:51.473Z,1010.65
2023-04-07T11:13:51.752Z,1010.65
2023-04-07T11:14:51.443Z,1010.64
2023-04-07T11:15:51.417Z,1010.65
2023-04-07T11:16:51.414Z,1010.63
2023-04-07T11:17:51.539Z,1010.66
2023-04-07T11:18:51.439Z,1010.66
2023-04-07T11:19:51.399Z,1010.70
2023-04-07T11:20:51.375Z,1010.69
2023-04-07T11:21:51.355Z,1010.71
2023-04-07T11:22:51.381Z,1010.75
2023-04-07T11:23:51.567Z,1010.71
2023-04-07T11:24:51.328Z,1010.69
2023-04-07T11:25:51.331Z,1010.73
2023-04-07T11:26:51.313Z,1010.76
2023-04-07T11:27:51.330Z,1010.75
2023-04-07T11:28:51.333Z,1010.74
2023-04-07T11:29:51.287Z,1010.75
2023-04-07T11:30:51.291Z,1010.75
2023-04-07T11:31:51.426Z,1010.73
2023-04-07T11:32:51.319Z,1010.73
2023-04-07T11:33:51.230Z,1010.68
2023-04-07T11:34:51.220Z,1010.71
2023-04-07T11:35:51.327Z,1010.76
2023-04-07T11:36:51.203Z,1010.73
2023-04-07T11:37:51.260Z,1010.77
2023-04-07T11:38:51.191Z,1010.77
2023-04-07T11:39:51.191Z,1010.77
2023-04-07T11:40:51.241Z,1010.80
2023-04-07T11:41:51.228Z,1010.83
2023-04-07T11:42:51.146Z,1010.82
2023-04-07T11:43:51.122Z,1010.82
2023-04-07T11:44:51.149Z,1010.82
2023-04-07T11:45:51.092Z,1010.85
2023-04-07T11:46:51.106Z,1010.84
2023-04-07T11:47:51.189Z,1010.86
2023-04-07T11:48:51.073Z,1010.86
2023-04-07T11:49:51.057Z,1010.88
2023-04-07T11:50:51.050Z,1010.84
2023-04-07T11:51:51.027Z,1010.90
2023-04-07T11:52:51.052Z,1010.87
2023-04-07T11:53:51.042Z,1010.90
2023-04-07T11:54:51.016Z,1010.97
2023-04-07T11:55:50.988Z,1010.97
2023-04-07T11:56:51.004Z,1010.94
2023-04-07T11:57:51.002Z,1010.96
2023-04-07T11:58:50.969Z,1010.98
2023-04-07T11:59:50.951Z,1010.98
2023-04-07T12:00:50.937Z,1011.03
2023-04-07T12:01:51.037Z,1011.07
2023-04-07T12:02:51.101Z,1011.07
2023-04-07T12:03:51.136Z,1011.09
2023-04-07T12:04:51.077Z,1011.06
2023-04-07T12:05:50.915Z,1011.04